createdAt,value
2019-02-18T00:01:05.358Z,27.8
2019-02-18T00:01:54.976Z,27.7
2019-02-18T00:02:44.944Z,27.6
2019-02-18T00:03:36.251Z,27.1
2019-02-18T00:04:25.376Z,27.9
2019-02-18T00:05:15.446Z,28.8
2019-02-18T00:06:06.096Z,29.6
2019-02-18T00:06:55.891Z,30.3
2019-02-18T00:07:45.878Z,30.8
2019-02-18T00:08:35.646Z,31.2
2019-02-18T00:09:25.745Z,31.6
2019-02-18T00:10:15.885Z,31.9
2019-02-18T00:11:05.400Z,32.2
2019-02-18T00:11:56.205Z,32.4
2019-02-18T00:12:46.548Z,32
2019-02-18T00:13:36.266Z,31.8
2019-02-18T00:14:25.770Z,31.3
2019-02-18T00:15:16.758Z,30.7
2019-02-18T00:16:06.185Z,30.3
2019-02-18T00:16:56.073Z,30
2019-02-18T00:17:46.808Z,29.8
2019-02-18T00:18:37.210Z,29.6
2019-02-18T00:19:26.445Z,29.4
2019-02-18T00:20:16.198Z,29.3
2019-02-18T00:21:07.672Z,29.1
2019-02-18T00:21:56.832Z,28.8
2019-02-18T00:22:47.192Z,28.6
2019-02-18T00:23:37.537Z,28.4
2019-02-18T00:24:27.069Z,28.3
2019-02-18T00:25:17.380Z,28.1
2019-02-18T00:26:06.686Z,28
2019-02-18T00:26:56.909Z,27.9
2019-02-18T00:27:47.609Z,27.8
2019-02-18T00:28:39.432Z,27.7
2019-02-18T00:29:25.817Z,27.3
2019-02-18T00:30:16.422Z,27.8
2019-02-18T00:31:06.721Z,28.8
2019-02-18T00:31:58.392Z,29.6
2019-02-18T00:32:48.425Z,30.3
2019-02-18T00:33:37.967Z,30.8
2019-02-18T00:34:28.014Z,31.2
2019-02-18T00:35:17.634Z,31.6
2019-02-18T00:36:09.004Z,31.9
2019-02-18T00:36:56.611Z,32.2
2019-02-18T00:37:47.438Z,32.4
2019-02-18T00:38:37.721Z,32
2019-02-18T00:39:27.286Z,31.8
2019-02-18T00:40:18.679Z,31.4
2019-02-18T00:41:07.101Z,30.8
2019-02-18T00:41:59.511Z,30.4
2019-02-18T00:42:48.286Z,30.1
2019-02-18T00:43:38.661Z,29.9
2019-02-18T00:44:28.516Z,29.7
2019-02-18T00:45:18.255Z,29.6
2019-02-18T00:46:08.001Z,29.4
2019-02-18T00:46:58.143Z,29.2
2019-02-18T00:47:50.296Z,28.9
2019-02-18T00:48:38.410Z,28.6
2019-02-18T00:49:27.738Z,28.4
2019-02-18T00:50:18.255Z,28.3
2019-02-18T00:51:08.141Z,28.1
2019-02-18T00:51:58.672Z,28
2019-02-18T00:52:48.780Z,27.9
2019-02-18T00:54:29.103Z,27.8
2019-02-18T00:55:19.206Z,27.2
2019-02-18T00:56:08.714Z,28.2
2019-02-18T00:56:59.222Z,29.1
2019-02-18T00:57:49.122Z,29.8
2019-02-18T00:58:39.712Z,30.3
2019-02-18T00:59:29.797Z,30.8
2019-02-18T01:00:19.465Z,31.3
2019-02-18T01:01:09.285Z,31.6
2019-02-18T01:01:59.648Z,31.9
2019-02-18T01:02:49.127Z,32.1
2019-02-18T01:03:40.012Z,32.4
2019-02-18T01:04:30.100Z,32
2019-02-18T01:05:19.684Z,31.9
2019-02-18T01:06:09.375Z,31.4
2019-02-18T01:07:00.267Z,30.9
2019-02-18T01:07:49.792Z,30.5
2019-02-18T01:08:40.174Z,30.2
2019-02-18T01:09:30.732Z,29.9
2019-02-18T01:10:20.794Z,29.7
2019-02-18T01:11:10.095Z,29.5
2019-02-18T01:12:00.592Z,29.4
2019-02-18T01:12:50.104Z,29.3
2019-02-18T01:13:40.682Z,29
2019-02-18T01:14:31.047Z,28.7
2019-02-18T01:15:20.165Z,28.4
2019-02-18T01:16:10.919Z,28.3
2019-02-18T01:16:59.562Z,28.2
2019-02-18T01:17:50.994Z,28
2019-02-18T01:18:41.082Z,27.9
2019-02-18T01:20:21.076Z,27.6
2019-02-18T01:21:10.444Z,27.4
2019-02-18T01:22:00.709Z,28.4
2019-02-18T01:22:52.344Z,29.2
2019-02-18T01:23:42.051Z,29.9
2019-02-18T01:24:30.404Z,30.4
2019-02-18T01:25:20.638Z,30.8
2019-02-18T01:26:11.601Z,31.2
2019-02-18T01:27:01.048Z,31.5
2019-02-18T01:27:51.238Z,31.8
2019-02-18T01:28:41.529Z,32.1
2019-02-18T01:29:31.232Z,32.3
2019-02-18T01:30:20.830Z,31.9
2019-02-18T01:31:11.182Z,30.9
2019-02-18T01:32:01.733Z,28.9
2019-02-18T01:32:51.775Z,27.1
2019-02-18T01:33:41.485Z,25.5
2019-02-18T01:34:32.706Z,25.3
2019-02-18T01:35:21.695Z,25.4
2019-02-18T01:36:12.055Z,26.9
2019-02-18T01:37:01.786Z,28.3
2019-02-18T01:37:55.420Z,29.3
2019-02-18T01:38:42.250Z,30.2
2019-02-18T01:39:32.537Z,30.8
2019-02-18T01:40:22.682Z,31.3
2019-02-18T01:41:13.197Z,31.8
2019-02-18T01:42:02.350Z,32.1
2019-02-18T01:42:53.002Z,32.4
2019-02-18T01:43:41.685Z,32
2019-02-18T01:44:32.375Z,31.8
2019-02-18T01:45:21.492Z,31.3
2019-02-18T01:46:12.974Z,30.8
2019-02-18T01:47:03.378Z,30.3
2019-02-18T01:47:52.785Z,30
2019-02-18T01:48:43.432Z,29.8
2019-02-18T01:49:32.089Z,29.6
2019-02-18T01:50:22.869Z,29.4
2019-02-18T01:51:12.731Z,29.3
2019-02-18T01:52:02.531Z,29.1
2019-02-18T01:52:52.907Z,29.1
2019-02-18T01:53:42.624Z,28.6
2019-02-18T01:54:32.146Z,28.4
2019-02-18T01:55:23.394Z,28.3
2019-02-18T01:56:14.184Z,28.1
2019-02-18T01:57:03.458Z,27.9
2019-02-18T01:57:53.737Z,27.9
2019-02-18T01:58:42.795Z,27.8
2019-02-18T01:59:32.723Z,27.5
2019-02-18T02:00:22.984Z,27.4
2019-02-18T02:01:13.506Z,28.5
2019-02-18T02:02:02.979Z,29.4
2019-02-18T02:02:53.749Z,29.9
2019-02-18T02:03:44.815Z,30.5
2019-02-18T02:04:32.651Z,30.9
2019-02-18T02:05:24.507Z,31.3
2019-02-18T02:06:12.688Z,31.6
2019-02-18T02:07:04.452Z,31.9
2019-02-18T02:08:05.531Z,32.2
2019-02-18T02:08:43.483Z,32.4
2019-02-18T02:09:33.772Z,32
2019-02-18T02:10:23.901Z,31.9
2019-02-18T02:11:13.916Z,31.5
2019-02-18T02:12:04.167Z,31
2019-02-18T02:12:55.370Z,30.6
2019-02-18T02:13:45.424Z,30.3
2019-02-18T02:14:33.640Z,30
2019-02-18T02:15:25.314Z,29.8
2019-02-18T02:16:14.992Z,29.6
2019-02-18T02:17:04.063Z,29.4
2019-02-18T02:17:54.307Z,29.3
2019-02-18T02:18:45.242Z,29.3
2019-02-18T02:19:34.989Z,28.8
2019-02-18T02:20:24.811Z,28.6
2019-02-18T02:21:14.678Z,28.3
2019-02-18T02:22:04.867Z,28.2
2019-02-18T02:22:55.222Z,28.1
2019-02-18T02:23:45.817Z,27.9
2019-02-18T02:25:25.717Z,27.4
2019-02-18T02:26:15.732Z,27.6
2019-02-18T02:27:04.952Z,28.6
2019-02-18T02:27:55.564Z,29.3
2019-02-18T02:28:45.437Z,29.9
2019-02-18T02:29:35.232Z,30.4
2019-02-18T02:30:26.537Z,30.8
2019-02-18T02:31:16.305Z,31.2
2019-02-18T02:32:06.627Z,31.5
2019-02-18T02:32:55.748Z,31.8
2019-02-18T02:33:46.336Z,32.1
2019-02-18T02:34:36.144Z,32.3
2019-02-18T02:35:25.546Z,32.4
2019-02-18T02:36:16.519Z,32
2019-02-18T02:37:06.763Z,31.8
2019-02-18T02:38:08.840Z,31.3
2019-02-18T02:38:45.881Z,30.7
2019-02-18T02:39:37.435Z,30.4
2019-02-18T02:40:25.676Z,30.2
2019-02-18T02:41:16.612Z,29.9
2019-02-18T02:42:06.360Z,29.8
2019-02-18T02:42:57.321Z,29.6
2019-02-18T02:43:47.067Z,29.4
2019-02-18T02:44:37.399Z,29.3
2019-02-18T02:45:27.809Z,29.2
2019-02-18T02:46:17.044Z,28.9
2019-02-18T02:47:06.778Z,28.6
2019-02-18T02:47:56.971Z,28.3
2019-02-18T02:48:47.369Z,28.1
2019-02-18T02:49:37.832Z,28.1
2019-02-18T02:50:28.050Z,27.9
2019-02-18T02:52:07.539Z,27.3
2019-02-18T02:52:56.672Z,27.6
2019-02-18T02:53:47.872Z,28.6
2019-02-18T02:54:36.771Z,29.4
2019-02-18T02:55:27.240Z,29.9
2019-02-18T02:56:17.668Z,30.4
2019-02-18T02:57:06.799Z,30.8
2019-02-18T02:57:57.155Z,31.1
2019-02-18T02:58:46.921Z,31.4
2019-02-18T02:59:37.060Z,31.7
2019-02-18T03:00:27.491Z,31.9
2019-02-18T03:01:18.823Z,32.1
2019-02-18T03:02:07.253Z,32.4
2019-02-18T03:02:57.837Z,32.1
2019-02-18T03:03:47.625Z,31.9
2019-02-18T03:04:36.934Z,31.6
2019-02-18T03:08:23.650Z,30.1
2019-02-18T03:08:59.755Z,29.8
2019-02-18T03:09:50.492Z,29.7
2019-02-18T03:10:40.049Z,29.5
2019-02-18T03:11:30.328Z,29.4
2019-02-18T03:12:20.535Z,29.3
2019-02-18T03:13:10.478Z,29.1
2019-02-18T03:13:59.992Z,28.6
2019-02-18T03:14:50.045Z,28.4
2019-02-18T03:15:41.012Z,28.3
2019-02-18T03:16:29.929Z,28.1
2019-02-18T03:17:20.084Z,27.9
2019-02-18T03:19:01.200Z,27.4
2019-02-18T03:19:51.428Z,27.7
2019-02-18T03:20:41.230Z,28.6
2019-02-18T03:21:31.061Z,29.4
2019-02-18T03:22:20.487Z,29.9
2019-02-18T03:23:10.613Z,30.4
2019-02-18T03:24:01.877Z,30.8
2019-02-18T03:24:50.743Z,31.1
2019-02-18T03:25:41.925Z,31.4
2019-02-18T03:26:31.886Z,31.6
2019-02-18T03:27:21.466Z,31.9
2019-02-18T03:28:10.599Z,32.1
2019-02-18T03:29:02.565Z,32.3
2019-02-18T03:29:52.968Z,32.3
2019-02-18T03:30:42.234Z,31.9
2019-02-18T03:31:32.262Z,31.7
2019-02-18T03:32:22.017Z,31.2
2019-02-18T03:33:13.196Z,30.8
2019-02-18T03:34:03.174Z,30.4
2019-02-18T03:34:51.698Z,30.2
2019-02-18T03:35:43.347Z,30
2019-02-18T03:36:32.283Z,29.8
2019-02-18T03:37:22.658Z,29.6
2019-02-18T03:38:13.094Z,29.4
2019-02-18T03:39:03.082Z,29.4
2019-02-18T03:39:52.890Z,29.3
2019-02-18T03:40:42.593Z,28.8
2019-02-18T03:41:33.438Z,28.5
2019-02-18T03:42:23.037Z,28.3
2019-02-18T03:43:12.710Z,28.1
2019-02-18T03:44:03.099Z,28
2019-02-18T03:44:53.132Z,27.9
2019-02-18T03:45:42.714Z,27.6
2019-02-18T03:46:33.642Z,27.3
2019-02-18T03:47:21.550Z,28.3
2019-02-18T03:48:13.477Z,29.1
2019-02-18T03:49:03.176Z,29.7
2019-02-18T03:49:53.869Z,30.2
2019-02-18T03:50:43.489Z,30.6
2019-02-18T03:51:33.645Z,30.9
2019-02-18T03:52:23.997Z,31.2
2019-02-18T03:53:14.052Z,31.4
2019-02-18T03:54:04.023Z,31.7
2019-02-18T03:54:53.847Z,31.9
2019-02-18T03:55:43.966Z,32.1
2019-02-18T03:56:33.462Z,32.3
2019-02-18T03:57:23.780Z,32.4
2019-02-18T03:58:14.139Z,31.9
2019-02-18T03:59:03.939Z,31.7
2019-02-18T03:59:54.316Z,31.2
2019-02-18T04:00:43.787Z,30.8
2019-02-18T04:01:34.610Z,30.5
2019-02-18T04:02:23.859Z,30.3
2019-02-18T04:03:13.878Z,30.1
2019-02-18T04:04:04.544Z,29.9
2019-02-18T04:04:55.189Z,29.8
2019-02-18T04:05:44.326Z,29.6
2019-02-18T04:06:33.947Z,29.4
2019-02-18T04:07:24.749Z,29.1
2019-02-18T04:08:14.264Z,28.8
2019-02-18T04:09:05.149Z,28.5
2019-02-18T04:09:54.321Z,28.3
2019-02-18T04:10:45.005Z,28.1
2019-02-18T04:11:35.143Z,28
2019-02-18T04:12:24.255Z,27.9
2019-02-18T04:13:16.263Z,27.5
2019-02-18T04:14:05.898Z,27.6
2019-02-18T04:14:56.116Z,28.5
2019-02-18T04:15:45.250Z,29.3
2019-02-18T04:16:35.713Z,29.8
2019-02-18T04:17:24.895Z,30.3
2019-02-18T04:18:15.511Z,30.6
2019-02-18T04:19:05.517Z,30.9
2019-02-18T04:19:56.603Z,31.2
2019-02-18T04:20:45.462Z,31.1
2019-02-18T04:21:35.255Z,30.1
2019-02-18T04:22:25.507Z,28.5
2019-02-18T04:23:15.851Z,27.3
2019-02-18T04:24:05.288Z,25.9
2019-02-18T04:24:55.978Z,24.1
2019-02-18T04:25:45.602Z,22.6
2019-02-18T04:26:36.437Z,22.4
2019-02-18T04:27:26.329Z,22.5
2019-02-18T04:28:15.285Z,24.2
2019-02-18T04:29:06.195Z,25.8
2019-02-18T04:29:56.017Z,27.3
2019-02-18T04:30:46.099Z,28.4
2019-02-18T04:31:36.805Z,29.4
2019-02-18T04:32:26.683Z,30.1
2019-02-18T04:33:17.122Z,30.6
2019-02-18T04:34:06.537Z,30.9
2019-02-18T04:34:56.843Z,31.3
2019-02-18T04:35:46.942Z,31.6
2019-02-18T04:36:37.316Z,31.9
2019-02-18T04:37:27.322Z,32.1
2019-02-18T04:38:16.307Z,32.4
2019-02-18T04:39:06.880Z,32.5
2019-02-18T04:39:56.576Z,32.1
2019-02-18T04:40:46.749Z,31.8
2019-02-18T04:41:37.361Z,31.1
2019-02-18T04:42:27.651Z,30.8
2019-02-18T04:43:17.727Z,30.5
2019-02-18T04:44:07.587Z,30.3
2019-02-18T04:44:57.026Z,30.1
2019-02-18T04:45:46.614Z,29.9
2019-02-18T04:46:38.306Z,29.7
2019-02-18T04:47:26.801Z,29.6
2019-02-18T04:48:18.451Z,29.4
2019-02-18T04:49:08.228Z,29
2019-02-18T04:49:58.695Z,28.7
2019-02-18T04:50:48.553Z,28.4
2019-02-18T04:51:37.805Z,28.3
2019-02-18T04:52:27.821Z,28.1
2019-02-18T04:53:17.843Z,28
2019-02-18T04:54:08.220Z,27.8
2019-02-18T04:54:58.307Z,27.4
2019-02-18T04:55:47.713Z,28.4
2019-02-18T04:56:37.894Z,29.2
2019-02-18T04:57:28.239Z,29.8
2019-02-18T04:58:18.524Z,30.3
2019-02-18T04:59:08.078Z,30.7
2019-02-18T04:59:58.922Z,31
2019-02-18T05:00:47.629Z,31.3
2019-02-18T05:01:39.039Z,31.6
2019-02-18T05:02:28.822Z,31.8
2019-02-18T05:03:18.843Z,32.1
2019-02-18T05:04:08.245Z,32.3
2019-02-18T05:04:59.039Z,32.4
2019-02-18T05:05:49.026Z,32.2
2019-02-18T05:06:38.890Z,32
2019-02-18T05:07:29.692Z,31.6
2019-02-18T05:08:19.497Z,31.1
2019-02-18T05:09:15.546Z,30.8
2019-02-18T05:09:59.328Z,30.5
2019-02-18T05:10:50.239Z,30.3
2019-02-18T05:11:39.721Z,30.1
2019-02-18T05:12:29.464Z,29.9
2019-02-18T05:13:19.321Z,29.8
2019-02-18T05:14:08.875Z,29.6
2019-02-18T05:14:59.925Z,29.4
2019-02-18T05:15:50.106Z,29.3
2019-02-18T05:16:39.265Z,28.8
2019-02-18T05:17:29.525Z,28.5
2019-02-18T05:18:19.021Z,28.3
2019-02-18T05:19:09.701Z,28.2
2019-02-18T05:19:59.498Z,28
2019-02-18T05:20:49.880Z,27.9
2019-02-18T05:21:40.161Z,27.3
2019-02-18T05:22:29.931Z,28
2019-02-18T05:23:20.311Z,28.9
2019-02-18T05:24:09.369Z,29.6
2019-02-18T05:25:00.393Z,30.1
2019-02-18T05:25:49.638Z,30.5
2019-02-18T05:26:39.935Z,30.8
2019-02-18T05:27:42.319Z,31.1
2019-02-18T05:28:20.929Z,31.5
2019-02-18T05:29:10.734Z,31.7
2019-02-18T05:30:00.373Z,31.9
2019-02-18T05:30:50.296Z,32.1
2019-02-18T05:31:41.171Z,32.4
2019-02-18T05:32:31.045Z,32.5
2019-02-18T05:33:21.548Z,32.1
2019-02-18T05:34:11.183Z,31.9
2019-02-18T05:35:00.493Z,31.4
2019-02-18T05:35:50.528Z,31
2019-02-18T05:36:41.191Z,30.7
2019-02-18T05:37:30.017Z,30.4
2019-02-18T05:38:20.705Z,30.2
2019-02-18T05:39:23.005Z,30
2019-02-18T05:40:03.313Z,29.8
2019-02-18T05:40:51.622Z,29.7
2019-02-18T05:41:40.622Z,29.5
2019-02-18T05:42:31.492Z,29.4
2019-02-18T05:43:20.979Z,29
2019-02-18T05:44:10.477Z,28.6
2019-02-18T05:45:02.329Z,28.4
2019-02-18T05:45:51.589Z,28.3
2019-02-18T05:46:41.073Z,28.1
2019-02-18T05:47:31.283Z,27.9
2019-02-18T05:48:21.831Z,27.4
2019-02-18T05:49:10.746Z,27.8
2019-02-18T05:50:02.641Z,28.7
2019-02-18T05:50:51.648Z,29.4
2019-02-18T05:51:42.200Z,29.9
2019-02-18T05:52:31.819Z,30.4
2019-02-18T05:53:21.360Z,30.7
2019-02-18T05:54:12.146Z,31
2019-02-18T05:55:02.973Z,31.3
2019-02-18T05:55:52.013Z,31.5
2019-02-18T05:56:42.883Z,31.8
2019-02-18T05:57:33.276Z,32
2019-02-18T05:58:22.965Z,32.2
2019-02-18T05:59:12.774Z,32.3
2019-02-18T06:00:02.541Z,32.4
2019-02-18T06:00:52.145Z,32
2019-02-18T06:01:42.598Z,31.8
2019-02-18T06:02:33.400Z,31.3
2019-02-18T06:03:21.920Z,30.9
2019-02-18T06:06:11.023Z,30.2
2019-02-18T06:07:01.799Z,30
2019-02-18T06:07:51.184Z,29.8
2019-02-18T06:08:39.711Z,29.7
2019-02-18T06:09:40.007Z,29.6
2019-02-18T06:10:25.057Z,29
2019-02-18T06:11:10.111Z,28.7
2019-02-18T06:12:00.833Z,28.5
2019-02-18T06:12:50.435Z,28.3
2019-02-18T06:13:40.427Z,28.1
2019-02-18T06:14:31.754Z,28
2019-02-18T06:15:21.023Z,27.7
2019-02-18T06:16:11.644Z,27.5
2019-02-18T06:17:05.162Z,28.4
2019-02-18T06:17:52.515Z,29.3
2019-02-18T06:18:42.502Z,29.8
2019-02-18T06:19:31.595Z,30.3
2019-02-18T06:20:20.846Z,30.6
2019-02-18T06:21:11.668Z,31
2019-02-18T06:22:00.968Z,31.3
2019-02-18T06:22:52.781Z,31.6
2019-02-18T06:23:56.771Z,31.8
2019-02-18T06:24:31.781Z,32.1
2019-02-18T06:25:37.495Z,32.2
2019-02-18T06:26:13.170Z,32.4
2019-02-18T06:27:02.832Z,32.5
2019-02-18T06:28:09.596Z,32.1
2019-02-18T06:28:42.724Z,31.8
2019-02-18T06:29:32.851Z,31.4
2019-02-18T06:30:22.044Z,30.9
2019-02-18T06:31:12.976Z,30.7
2019-02-18T06:32:01.599Z,30.4
2019-02-18T06:32:53.164Z,30.2
2019-02-18T06:33:42.517Z,30
2019-02-18T06:34:33.517Z,29.9
2019-02-18T06:35:21.996Z,29.7
2019-02-18T06:36:12.686Z,29.6
2019-02-18T06:37:02.929Z,29.3
2019-02-18T06:37:53.059Z,28.8
2019-02-18T06:38:42.761Z,28.6
2019-02-18T06:39:44.609Z,28.4
2019-02-18T06:40:23.368Z,28.2
2019-02-18T06:41:12.449Z,28.1
2019-02-18T06:42:03.326Z,27.9
2019-02-18T06:43:44.010Z,27.8
2019-02-18T06:44:32.695Z,27.6
2019-02-18T06:45:23.609Z,27.5
2019-02-18T06:46:13.319Z,27.4
2019-02-18T06:47:04.463Z,27.3
2019-02-18T06:48:07.568Z,27.3
2019-02-18T06:48:43.792Z,27.1
2019-02-18T06:49:33.452Z,27.1
2019-02-18T06:50:22.979Z,26.9
2019-02-18T06:51:13.392Z,26.8
2019-02-18T06:52:18.420Z,26.8
2019-02-18T06:52:53.517Z,26.6
2019-02-18T06:53:44.662Z,26.6
2019-02-18T06:54:49.673Z,26.5
2019-02-18T06:55:23.992Z,26.3
2019-02-18T06:56:13.735Z,26.3
2019-02-18T06:57:04.177Z,26.2
2019-02-18T06:57:54.945Z,26.1
2019-02-18T06:58:43.383Z,26
2019-02-18T06:59:34.569Z,25.9
2019-02-18T07:00:24.770Z,25.8
2019-02-18T07:01:14.384Z,25.8
2019-02-18T07:02:03.715Z,25.6
2019-02-18T07:02:55.774Z,25.6
2019-02-18T07:03:44.012Z,25.4
2019-02-18T07:06:10.334Z,25.2
2019-02-18T07:07:01.694Z,25.1
2019-02-18T07:07:49.889Z,25.1
2019-02-18T07:08:40.633Z,25
2019-02-18T07:09:30.551Z,24.9
2019-02-18T07:10:19.207Z,24.8
2019-02-18T07:11:11.824Z,24.8
2019-02-18T07:11:59.696Z,24.6
2019-02-18T07:12:51.303Z,24.6
2019-02-18T07:13:41.810Z,24.5
2019-02-18T07:14:31.200Z,24.4
2019-02-18T07:15:20.649Z,24.3
2019-02-18T07:16:11.903Z,24.3
2019-02-18T07:17:01.898Z,24.2
2019-02-18T07:17:50.539Z,24.1
2019-02-18T07:18:41.481Z,24.1
2019-02-18T07:20:03.648Z,24
2019-02-18T07:20:22.153Z,23.9
2019-02-18T07:21:10.212Z,23.9
2019-02-18T07:22:02.235Z,23.8
2019-02-18T07:22:52.806Z,23.8
2019-02-18T07:23:41.233Z,23.7
2019-02-18T07:24:31.980Z,23.6
2019-02-18T07:25:22.190Z,23.6
2019-02-18T07:26:11.970Z,23.5
2019-02-18T07:27:02.185Z,23.4
2019-02-18T07:27:52.594Z,23.4
2019-02-18T07:28:41.332Z,23.4
2019-02-18T07:29:34.618Z,23.3
2019-02-18T07:30:21.446Z,23.3
2019-02-18T07:31:12.619Z,23.2
2019-02-18T07:32:03.222Z,23.1
2019-02-18T07:32:52.639Z,23.1
2019-02-18T07:33:41.951Z,23.1
2019-02-18T07:34:33.305Z,23.1
2019-02-18T07:35:23.219Z,23
2019-02-18T07:36:12.760Z,22.9
2019-02-18T07:37:03.117Z,22.9
2019-02-18T07:38:06.968Z,22.9
2019-02-18T07:38:42.664Z,22.8
2019-02-18T07:39:31.007Z,22.8
2019-02-18T07:40:22.286Z,22.8
2019-02-18T07:41:13.790Z,22.8
2019-02-18T07:42:02.754Z,22.7
2019-02-18T07:42:52.646Z,22.7
2019-02-18T07:43:42.476Z,22.6
2019-02-18T07:44:33.218Z,22.6
2019-02-18T07:45:23.831Z,22.6
2019-02-18T07:46:12.998Z,22.6
2019-02-18T07:47:04.018Z,22.5
2019-02-18T07:47:53.161Z,22.5
2019-02-18T07:48:46.203Z,22.4
2019-02-18T07:49:32.782Z,22.4
2019-02-18T07:50:30.206Z,22.4
2019-02-18T07:51:16.884Z,22.4
2019-02-18T07:52:04.016Z,22.4
2019-02-18T07:52:53.049Z,22.4
2019-02-18T07:53:43.369Z,22.3
2019-02-18T07:54:34.248Z,22.3
2019-02-18T07:55:23.959Z,22.3
2019-02-18T07:56:14.099Z,22.3
2019-02-18T07:57:03.503Z,22.3
2019-02-18T07:57:54.433Z,22.3
2019-02-18T07:58:43.953Z,22.3
2019-02-18T07:59:32.941Z,22.2
2019-02-18T08:00:24.593Z,22.2
2019-02-18T08:01:14.727Z,22.2
2019-02-18T08:02:05.025Z,22.1
2019-02-18T08:02:54.818Z,22.1
2019-02-18T08:03:44.013Z,22.1
2019-02-18T08:04:34.105Z,22.1
2019-02-18T08:05:24.754Z,22.1
2019-02-18T08:06:14.208Z,22.1
2019-02-18T08:07:03.425Z,22.1
2019-02-18T08:07:54.853Z,22
2019-02-18T08:08:43.630Z,22
2019-02-18T08:09:34.378Z,22
2019-02-18T08:10:25.290Z,22
2019-02-18T08:11:13.593Z,22
2019-02-18T08:12:04.797Z,22
2019-02-18T08:12:53.493Z,21.9
2019-02-18T08:13:45.406Z,21.9
2019-02-18T08:14:35.365Z,21.9
2019-02-18T08:15:25.115Z,21.9
2019-02-18T08:16:14.029Z,21.9
2019-02-18T08:17:05.302Z,21.9
2019-02-18T08:17:55.030Z,21.9
2019-02-18T08:18:44.847Z,21.9
2019-02-18T08:19:35.969Z,21.9
2019-02-18T08:20:25.197Z,21.8
2019-02-18T08:21:14.756Z,21.8
2019-02-18T08:22:04.515Z,21.8
2019-02-18T08:22:55.687Z,21.8
2019-02-18T08:23:45.927Z,21.8
2019-02-18T08:24:35.007Z,21.8
2019-02-18T08:25:25.311Z,21.8
2019-02-18T08:26:15.189Z,21.8
2019-02-18T08:27:06.361Z,21.8
2019-02-18T08:27:55.007Z,21.8
2019-02-18T08:28:46.698Z,21.8
2019-02-18T08:29:35.842Z,21.8
2019-02-18T08:30:25.436Z,21.8
2019-02-18T08:31:15.324Z,21.8
2019-02-18T08:32:06.497Z,21.7
2019-02-18T08:32:56.531Z,21.7
2019-02-18T08:33:46.641Z,21.7
2019-02-18T08:34:36.952Z,21.6
2019-02-18T08:35:26.511Z,21.6
2019-02-18T08:36:16.521Z,21.6
2019-02-18T08:37:06.861Z,21.6
2019-02-18T08:37:57.362Z,21.6
2019-02-18T08:38:46.903Z,21.6
2019-02-18T08:39:37.747Z,21.6
2019-02-18T08:40:32.521Z,21.6
2019-02-18T08:41:16.403Z,21.6
2019-02-18T08:42:06.980Z,21.6
2019-02-18T08:42:56.808Z,21.6
2019-02-18T08:43:46.519Z,21.6
2019-02-18T08:44:37.075Z,21.6
2019-02-18T08:45:27.235Z,21.5
2019-02-18T08:46:16.943Z,21.5
2019-02-18T08:47:06.193Z,21.5
2019-02-18T08:47:56.780Z,21.6
2019-02-18T08:48:47.980Z,21.5
2019-02-18T08:49:38.068Z,21.5
2019-02-18T08:50:26.942Z,21.4
2019-02-18T08:51:17.088Z,21.5
2019-02-18T08:52:06.555Z,21.4
2019-02-18T08:52:57.103Z,21.4
2019-02-18T08:53:50.110Z,21.4
2019-02-18T08:54:37.112Z,21.4
2019-02-18T08:55:27.465Z,21.4
2019-02-18T08:56:18.702Z,21.4
2019-02-18T08:57:06.845Z,21.4
2019-02-18T08:57:57.987Z,21.4
2019-02-18T08:58:48.120Z,21.4
2019-02-18T08:59:38.743Z,21.4
2019-02-18T09:00:28.737Z,21.4
2019-02-18T09:01:18.522Z,21.3
2019-02-18T09:02:08.891Z,21.3
2019-02-18T09:02:59.506Z,21.3
2019-02-18T09:03:48.178Z,21.3
2019-02-18T09:04:38.775Z,21.3
2019-02-18T09:05:29.881Z,21.3
2019-02-18T09:06:18.010Z,21.3
2019-02-18T09:07:09.573Z,21.3
2019-02-18T09:07:58.496Z,21.3
2019-02-18T09:08:49.146Z,21.3
2019-02-18T09:09:39.339Z,21.3
2019-02-18T09:10:41.176Z,21.3
2019-02-18T09:11:19.563Z,21.3
2019-02-18T09:12:09.816Z,21.3
2019-02-18T09:12:59.083Z,21.3
2019-02-18T09:13:50.071Z,21.2
2019-02-18T09:14:38.871Z,21.2
2019-02-18T09:15:30.062Z,21.2
2019-02-18T09:16:20.088Z,21.2
2019-02-18T09:17:08.901Z,21.2
2019-02-18T09:18:00.106Z,21.2
2019-02-18T09:18:49.701Z,21.2
2019-02-18T09:19:39.607Z,21.2
2019-02-18T09:20:33.280Z,21.2
2019-02-18T09:26:19.551Z,21.1
2019-02-18T09:27:08.895Z,21.1
2019-02-18T09:27:59.725Z,21.1
2019-02-18T09:28:49.711Z,21.1
2019-02-18T09:29:39.445Z,21
2019-02-18T09:30:29.842Z,21.1
2019-02-18T09:31:19.920Z,21.1
2019-02-18T09:32:09.402Z,21
2019-02-18T09:32:58.945Z,21.1
2019-02-18T09:33:49.254Z,21
2019-02-18T09:34:39.612Z,21.1
2019-02-18T09:35:30.780Z,21
2019-02-18T09:36:22.623Z,21
2019-02-18T09:37:10.135Z,21
2019-02-18T09:38:00.202Z,20.9
2019-02-18T09:38:51.260Z,21
2019-02-18T09:39:40.890Z,20.9
2019-02-18T09:40:29.779Z,20.9
2019-02-18T09:41:20.547Z,20.9
2019-02-18T09:42:11.494Z,20.9
2019-02-18T09:43:00.221Z,20.9
2019-02-18T09:43:50.771Z,20.9
2019-02-18T09:44:40.201Z,20.9
2019-02-18T09:45:31.446Z,20.9
2019-02-18T09:46:21.713Z,20.9
2019-02-18T09:47:11.451Z,20.9
2019-02-18T09:48:03.262Z,20.9
2019-02-18T09:48:51.059Z,20.9
2019-02-18T09:49:41.671Z,20.8
2019-02-18T09:50:31.904Z,20.8
2019-02-18T09:51:22.391Z,20.8
2019-02-18T09:52:11.956Z,20.8
2019-02-18T09:53:04.171Z,20.8
2019-02-18T09:53:52.513Z,20.8
2019-02-18T09:54:41.253Z,20.8
2019-02-18T09:55:31.747Z,20.8
2019-02-18T09:56:21.884Z,20.8
2019-02-18T09:57:12.936Z,20.8
2019-02-18T09:58:02.223Z,20.8
2019-02-18T09:58:54.816Z,20.8
2019-02-18T09:59:43.395Z,20.8
2019-02-18T10:00:32.203Z,20.8
2019-02-18T10:01:22.780Z,20.8
2019-02-18T10:02:13.015Z,20.8
2019-02-18T10:03:02.214Z,20.8
2019-02-18T10:03:52.048Z,20.7
2019-02-18T10:04:43.276Z,20.8
2019-02-18T10:07:10.728Z,20.7
2019-02-18T10:07:59.940Z,20.7
2019-02-18T10:08:50.585Z,20.6
2019-02-18T10:09:39.760Z,20.7
2019-02-18T10:10:31.551Z,20.6
2019-02-18T10:11:20.705Z,20.6
2019-02-18T10:12:22.057Z,20.6
2019-02-18T10:13:03.883Z,20.6
2019-02-18T10:13:49.490Z,20.6
2019-02-18T10:14:41.240Z,20.6
2019-02-18T10:15:31.397Z,20.6
2019-02-18T10:16:21.115Z,20.6
2019-02-18T10:17:11.102Z,20.6
2019-02-18T10:18:01.482Z,20.6
2019-02-18T10:18:50.939Z,20.6
2019-02-18T10:19:43.307Z,20.6
2019-02-18T10:20:31.892Z,20.5
2019-02-18T10:21:21.814Z,20.6
2019-02-18T10:22:10.351Z,20.6
2019-02-18T10:23:01.317Z,20.5
2019-02-18T10:23:51.831Z,20.5
2019-02-18T10:24:54.133Z,20.5
2019-02-18T10:25:32.357Z,20.5
2019-02-18T10:26:21.022Z,20.5
2019-02-18T10:27:10.881Z,20.4
2019-02-18T10:28:02.361Z,20.5
2019-02-18T10:28:52.487Z,20.4
2019-02-18T10:29:41.939Z,20.5
2019-02-18T10:30:32.158Z,20.4
2019-02-18T10:31:21.564Z,20.4
2019-02-18T10:32:12.427Z,20.4
2019-02-18T10:33:01.926Z,20.4
2019-02-18T10:33:50.342Z,20.4
2019-02-18T10:34:40.974Z,20.4
2019-02-18T10:35:34.901Z,20.4
2019-02-18T10:36:21.843Z,20.4
2019-02-18T10:37:13.038Z,20.4
2019-02-18T10:38:05.723Z,20.4
2019-02-18T10:38:52.374Z,20.4
2019-02-18T10:39:42.702Z,20.4
2019-02-18T10:40:31.623Z,20.4
2019-02-18T10:41:25.276Z,20.4
2019-02-18T10:42:11.743Z,20.4
2019-02-18T10:43:03.048Z,20.3
2019-02-18T10:43:54.987Z,20.4
2019-02-18T10:44:43.130Z,20.4
2019-02-18T10:45:34.065Z,20.3
2019-02-18T10:46:23.550Z,20.4
2019-02-18T10:47:14.435Z,20.3
2019-02-18T10:48:03.635Z,20.3
2019-02-18T10:48:52.840Z,20.3
2019-02-18T10:49:43.433Z,20.3
2019-02-18T10:50:36.371Z,20.3
2019-02-18T10:51:23.502Z,20.3
2019-02-18T10:52:13.852Z,20.3
2019-02-18T10:53:04.338Z,20.3
2019-02-18T10:53:54.568Z,20.3
2019-02-18T10:54:43.466Z,20.3
2019-02-18T10:55:35.245Z,20.3
2019-02-18T10:56:26.285Z,20.3
2019-02-18T10:57:14.545Z,20.2
2019-02-18T10:58:03.257Z,20.2
2019-02-18T10:58:53.512Z,20.3
2019-02-18T10:59:46.144Z,20.2
2019-02-18T11:00:34.197Z,20.3
2019-02-18T11:01:23.407Z,20.2
2019-02-18T11:02:14.735Z,20.2
2019-02-18T11:03:04.077Z,20.2
2019-02-18T11:03:54.863Z,20.2
2019-02-18T11:04:43.404Z,20.2
2019-02-18T11:05:36.984Z,20.2
2019-02-18T11:06:24.377Z,20.2
2019-02-18T11:07:13.814Z,20.2
2019-02-18T11:08:04.226Z,20.2
2019-02-18T11:08:54.701Z,20.1
2019-02-18T11:09:44.521Z,20.1
2019-02-18T11:10:34.830Z,20.1
2019-02-18T11:11:26.833Z,20.1
2019-02-18T11:12:14.246Z,20.1
2019-02-18T11:13:07.389Z,20.1
2019-02-18T11:13:55.399Z,20.1
2019-02-18T11:14:44.113Z,20.1
2019-02-18T11:15:34.160Z,20.1
2019-02-18T11:16:28.196Z,20.1
2019-02-18T11:17:15.436Z,20.1
2019-02-18T11:18:06.243Z,20.1
2019-02-18T11:18:54.690Z,20.1
2019-02-18T11:19:45.074Z,20.1
2019-02-18T11:20:35.327Z,20.1
2019-02-18T11:21:26.231Z,20.1
2019-02-18T11:22:17.743Z,20.1
2019-02-18T11:23:05.243Z,20.1
2019-02-18T11:23:56.702Z,20.1
2019-02-18T11:24:45.673Z,20.1
2019-02-18T11:25:38.506Z,20.1
2019-02-18T11:26:25.454Z,20.1
2019-02-18T11:27:16.343Z,20.1